createdAt,value
2023-01-08T00:00:30.749Z,22.33
2023-01-08T00:03:34.074Z,22.35
2023-01-08T00:06:37.263Z,21.60
2023-01-08T00:09:40.139Z,22.53
2023-01-08T00:12:42.755Z,21.50
2023-01-08T00:15:45.385Z,21.58
2023-01-08T00:18:48.323Z,21.83
2023-01-08T00:21:51.078Z,21.38
2023-01-08T00:24:53.828Z,20.97
2023-01-08T00:27:56.640Z,21.30
2023-01-08T00:31:01.454Z,21.67
2023-01-08T00:34:05.438Z,21.50
2023-01-08T00:37:08.074Z,20.80
2023-01-08T00:40:10.988Z,21.40
2023-01-08T00:43:13.538Z,20.75
2023-01-08T00:46:16.387Z,20.73
2023-01-08T00:49:19.190Z,21.13
2023-01-08T00:52:21.895Z,19.02
2023-01-08T00:55:24.702Z,19.93
2023-01-08T00:58:27.434Z,19.10
2023-01-08T01:01:30.247Z,20.60
2023-01-08T01:04:33.283Z,19.50
2023-01-08T01:07:35.871Z,19.67
2023-01-08T01:10:41.737Z,19.53
2023-01-08T01:13:44.481Z,19.42
2023-01-08T01:16:48.734Z,19.30
2023-01-08T01:19:51.404Z,19.20
2023-01-08T01:22:54.053Z,18.92
2023-01-08T01:25:56.746Z,18.13
2023-01-08T01:28:59.850Z,19.55
2023-01-08T01:32:02.493Z,17.88
2023-01-08T01:35:05.599Z,18.73
2023-01-08T01:38:08.272Z,18.25
2023-01-08T01:41:28.598Z,17.97
2023-01-08T01:44:45.739Z,18.05
2023-01-08T01:48:13.939Z,18.17
2023-01-08T01:51:17.031Z,17.40
2023-01-08T01:54:20.885Z,16.58
2023-01-08T01:57:25.057Z,18.20
2023-01-08T02:00:29.256Z,16.98
2023-01-08T02:03:36.157Z,16.27
2023-01-08T02:06:46.397Z,17.15
2023-01-08T02:10:17.183Z,17.52
2023-01-08T02:13:43.110Z,16.03
2023-01-08T02:16:48.418Z,17.42
2023-01-08T02:20:02.708Z,15.55
2023-01-08T02:23:57.665Z,16.15
2023-01-08T02:27:02.691Z,15.85
2023-01-08T02:30:06.346Z,15.73
2023-01-08T02:33:08.981Z,15.65
2023-01-08T02:36:20.654Z,15.88
2023-01-08T02:39:51.985Z,16.15
2023-01-08T02:42:54.477Z,15.13
2023-01-08T02:46:00.362Z,15.47
2023-01-08T02:49:07.843Z,14.90
2023-01-08T02:52:13.202Z,15.75
2023-01-08T02:55:17.515Z,14.70
2023-01-08T02:58:21.871Z,14.63
2023-01-08T03:01:26.288Z,14.47
2023-01-08T03:04:34.624Z,14.98
2023-01-08T03:07:37.539Z,14.00
2023-01-08T03:10:45.599Z,13.90
2023-01-08T03:14:10.206Z,14.77
2023-01-08T03:17:23.134Z,14.63
2023-01-08T03:20:26.214Z,13.63
2023-01-08T03:23:29.551Z,14.10
2023-01-08T03:26:33.566Z,14.25
2023-01-08T03:29:36.992Z,13.77
2023-01-08T03:32:42.150Z,14.13
2023-01-08T03:35:47.889Z,13.50
2023-01-08T03:38:59.458Z,13.45
2023-01-08T03:42:06.649Z,13.73
2023-01-08T03:45:09.836Z,13.70
2023-01-08T03:48:12.681Z,13.43
2023-01-08T03:51:15.421Z,13.10
2023-01-08T03:54:20.836Z,13.88
2023-01-08T03:57:24.090Z,12.57
2023-01-08T04:00:26.997Z,12.55
2023-01-08T04:03:29.562Z,12.73
2023-01-08T04:06:32.159Z,12.25
2023-01-08T04:09:35.194Z,13.23
2023-01-08T04:12:38.011Z,12.30
2023-01-08T04:15:40.543Z,12.48
2023-01-08T04:18:43.277Z,12.73
2023-01-08T04:21:45.947Z,12.35
2023-01-08T04:24:48.594Z,11.80
2023-01-08T04:27:51.165Z,12.68
2023-01-08T04:30:53.966Z,11.73
2023-01-08T04:33:56.846Z,12.03
2023-01-08T04:36:59.513Z,11.38
2023-01-08T04:40:02.195Z,11.40
2023-01-08T04:43:04.892Z,11.77
2023-01-08T04:46:07.887Z,11.10
2023-01-08T04:49:13.209Z,11.83
2023-01-08T04:52:15.861Z,11.52
2023-01-08T04:55:18.565Z,11.35
2023-01-08T04:58:21.866Z,11.65
2023-01-08T05:01:26.566Z,11.02
2023-01-08T05:04:29.329Z,11.37
2023-01-08T05:07:31.973Z,10.98
2023-01-08T05:10:34.654Z,10.85
2023-01-08T05:13:37.510Z,10.68
2023-01-08T05:16:40.187Z,10.55
2023-01-08T05:19:43.292Z,10.90
2023-01-08T05:22:48.462Z,10.35
2023-01-08T05:25:51.195Z,10.18
2023-01-08T05:28:54.137Z,11.15
2023-01-08T05:31:56.775Z,9.70
2023-01-08T05:34:59.417Z,9.83
2023-01-08T05:38:02.074Z,10.27
2023-01-08T05:41:05.651Z,10.05
2023-01-08T05:44:09.756Z,9.85
2023-01-08T05:47:12.329Z,9.73
2023-01-08T05:50:15.087Z,9.47
2023-01-08T05:53:17.708Z,10.13
2023-01-08T05:56:20.625Z,9.50
2023-01-08T05:59:23.455Z,9.20
2023-01-08T06:02:26.123Z,9.43
2023-01-08T06:05:30.072Z,10.40
2023-01-08T06:08:33.730Z,8.90
2023-01-08T06:11:36.293Z,8.98
2023-01-08T06:14:38.858Z,8.93
2023-01-08T06:17:41.871Z,9.27
2023-01-08T06:20:44.738Z,9.10
2023-01-08T06:23:47.259Z,8.63
2023-01-08T06:26:49.967Z,8.77
2023-01-08T06:29:52.817Z,8.65
2023-01-08T06:32:56.932Z,8.27
2023-01-08T06:36:04.548Z,9.30
2023-01-08T06:39:08.349Z,9.10
2023-01-08T06:42:11.003Z,8.93
2023-01-08T06:45:13.799Z,8.30
2023-01-08T06:48:16.392Z,9.10
2023-01-08T06:51:19.131Z,9.00
2023-01-08T06:54:21.731Z,8.90
2023-01-08T06:57:24.360Z,8.57
2023-01-08T07:00:27.518Z,8.95
2023-01-08T07:03:31.647Z,8.38
2023-01-08T07:06:34.300Z,8.53
2023-01-08T07:09:36.983Z,8.43
2023-01-08T07:12:39.733Z,8.55
2023-01-08T07:15:43.104Z,8.35
2023-01-08T07:18:45.853Z,8.35
2023-01-08T07:21:48.555Z,8.83
2023-01-08T07:24:51.445Z,8.15
2023-01-08T07:27:54.038Z,8.73
2023-01-08T07:30:56.738Z,8.60
2023-01-08T07:33:59.643Z,8.40
2023-01-08T07:37:03.242Z,8.13
2023-01-08T07:40:06.798Z,7.70
2023-01-08T07:43:09.763Z,8.20
2023-01-08T07:46:12.473Z,8.57
2023-01-08T07:49:15.220Z,8.82
2023-01-08T07:52:18.021Z,8.23
2023-01-08T07:55:20.654Z,7.78
2023-01-08T07:58:23.285Z,7.93
2023-01-08T08:01:26.791Z,7.78
2023-01-08T08:04:30.043Z,7.70
2023-01-08T08:07:32.817Z,7.90
2023-01-08T08:10:35.852Z,7.38
2023-01-08T08:13:42.700Z,7.75
2023-01-08T08:16:45.372Z,7.55
2023-01-08T08:19:48.064Z,7.50
2023-01-08T08:22:50.880Z,7.47
2023-01-08T08:25:53.678Z,7.80
2023-01-08T08:28:56.391Z,7.35
2023-01-08T08:31:59.178Z,7.80
2023-01-08T08:35:02.484Z,7.35
2023-01-08T08:38:05.820Z,7.30
2023-01-08T08:41:08.587Z,7.00
2023-01-08T08:44:11.243Z,7.95
2023-01-08T08:47:14.314Z,7.38
2023-01-08T08:50:17.501Z,7.57
2023-01-08T08:53:20.111Z,7.33
2023-01-08T08:56:22.719Z,7.65
2023-01-08T08:59:25.488Z,7.50
2023-01-08T09:02:28.249Z,7.43
2023-01-08T09:05:30.947Z,7.05
2023-01-08T09:08:33.580Z,7.27
2023-01-08T09:11:36.236Z,8.15
2023-01-08T09:14:39.001Z,6.93
2023-01-08T09:17:41.687Z,7.50
2023-01-08T09:20:44.351Z,7.68
2023-01-08T09:23:49.391Z,7.43
2023-01-08T09:26:54.086Z,7.25
2023-01-08T09:29:56.754Z,7.00
2023-01-08T09:33:02.501Z,7.57
2023-01-08T09:36:09.141Z,7.68
2023-01-08T09:39:11.720Z,7.20
2023-01-08T09:42:15.414Z,7.00
2023-01-08T09:45:28.230Z,7.13
2023-01-08T09:48:36.319Z,7.18
2023-01-08T09:51:39.639Z,7.40
2023-01-08T09:54:42.434Z,7.70
2023-01-08T09:57:46.162Z,7.03
2023-01-08T10:00:49.071Z,7.50
2023-01-08T10:04:15.952Z,7.32
2023-01-08T10:07:24.777Z,7.50
2023-01-08T10:10:30.819Z,8.00
2023-01-08T10:13:39.668Z,7.60
2023-01-08T10:16:43.974Z,7.57
2023-01-08T10:19:46.727Z,7.43
2023-01-08T10:22:50.734Z,6.82
2023-01-08T10:25:57.289Z,7.40
2023-01-08T10:29:14.391Z,6.75
2023-01-08T10:32:38.906Z,8.05
2023-01-08T10:35:43.128Z,7.70
2023-01-08T10:38:57.937Z,7.53
2023-01-08T10:42:06.423Z,7.80
2023-01-08T10:45:20.644Z,7.45
2023-01-08T10:48:30.069Z,7.75
2023-01-08T10:51:33.584Z,7.78
2023-01-08T10:54:40.910Z,7.82
2023-01-08T10:57:57.309Z,7.40
2023-01-08T11:01:17.042Z,7.80
2023-01-08T11:04:33.113Z,7.55
2023-01-08T11:07:35.947Z,7.60
2023-01-08T11:10:38.661Z,7.38
2023-01-08T11:13:41.322Z,7.90
2023-01-08T11:16:45.338Z,7.80
2023-01-08T11:19:47.970Z,7.85
2023-01-08T11:22:50.870Z,7.80
2023-01-08T11:26:01.859Z,7.18
2023-01-08T11:29:19.208Z,7.40
2023-01-08T11:32:36.072Z,7.97
2023-01-08T11:35:45.119Z,7.38
2023-01-08T11:38:47.840Z,7.80
2023-01-08T11:42:15.391Z,7.28
2023-01-08T11:45:22.693Z,8.00
2023-01-08T11:48:52.778Z,7.00
2023-01-08T11:52:01.158Z,7.80
2023-01-08T11:55:16.659Z,7.53
2023-01-08T11:58:32.658Z,7.13
2023-01-08T12:01:53.876Z,7.60
2023-01-08T12:05:21.233Z,7.18
2023-01-08T12:08:59.605Z,7.30
2023-01-08T12:12:13.472Z,7.32
2023-01-08T12:15:42.696Z,7.15
2023-01-08T12:19:09.243Z,7.50
2023-01-08T12:22:23.759Z,7.15
2023-01-08T12:26:24.925Z,7.30
2023-01-08T12:29:27.462Z,7.07
2023-01-08T12:32:50.329Z,7.05
2023-01-08T12:35:55.276Z,6.90
2023-01-08T12:39:05.075Z,7.47
2023-01-08T12:42:13.343Z,7.03
2023-01-08T12:45:21.205Z,7.30
2023-01-08T12:48:27.769Z,6.90
2023-01-08T12:52:24.005Z,8.53
2023-01-08T12:55:30.366Z,7.28
2023-01-08T12:59:06.203Z,7.18
2023-01-08T13:02:32.179Z,7.43
2023-01-08T13:05:37.797Z,6.97
2023-01-08T13:08:44.776Z,6.80
2023-01-08T13:11:52.720Z,7.00
2023-01-08T13:14:55.734Z,6.97
2023-01-08T13:18:05.758Z,7.50
2023-01-08T13:21:11.876Z,6.80
2023-01-08T13:24:36.532Z,7.30
2023-01-08T13:27:39.277Z,7.30
2023-01-08T13:30:43.202Z,7.20
2023-01-08T13:33:47.926Z,6.65
2023-01-08T13:37:00.533Z,6.55
2023-01-08T13:40:07.057Z,6.87
2023-01-08T13:43:18.607Z,6.80
2023-01-08T13:46:21.360Z,7.13
2023-01-08T13:49:35.541Z,6.80
2023-01-08T13:52:46.465Z,6.43
2023-01-08T13:55:57.772Z,6.67
2023-01-08T13:59:00.590Z,6.47
2023-01-08T14:02:04.197Z,6.82
2023-01-08T14:05:19.847Z,6.20
2023-01-08T14:08:24.346Z,6.68
2023-01-08T14:11:36.160Z,6.60
2023-01-08T14:14:39.408Z,6.35
2023-01-08T14:17:44.323Z,6.50
2023-01-08T14:20:50.902Z,6.38
2023-01-08T14:23:54.303Z,6.25
2023-01-08T14:26:59.901Z,6.27
2023-01-08T14:30:02.778Z,6.25
2023-01-08T14:33:12.732Z,6.63
2023-01-08T14:36:16.120Z,6.10
2023-01-08T14:39:32.249Z,6.45
2023-01-08T14:42:44.427Z,6.27
2023-01-08T14:45:50.578Z,6.32
2023-01-08T14:48:54.675Z,6.25
2023-01-08T14:52:00.280Z,6.07
2023-01-08T14:55:04.197Z,6.53
2023-01-08T14:58:17.186Z,6.30
2023-01-08T15:01:26.288Z,5.90
2023-01-08T15:04:29.979Z,6.35
2023-01-08T15:07:32.630Z,6.45
2023-01-08T15:10:38.581Z,5.95
2023-01-08T15:13:41.561Z,6.40
2023-01-08T15:16:44.493Z,6.18
2023-01-08T15:19:51.263Z,6.03
2023-01-08T15:22:53.865Z,6.07
2023-01-08T15:25:56.946Z,6.20
2023-01-08T15:29:01.751Z,6.17
2023-01-08T15:32:19.030Z,6.13
2023-01-08T15:35:25.773Z,5.95
2023-01-08T15:38:28.581Z,6.07
2023-01-08T15:41:57.171Z,5.90
2023-01-08T15:44:59.748Z,5.83
2023-01-08T15:48:02.554Z,6.25
2023-01-08T15:51:07.383Z,5.47
2023-01-08T15:54:12.720Z,5.60
2023-01-08T15:57:15.735Z,5.70
2023-01-08T16:00:20.140Z,6.10
2023-01-08T16:03:25.584Z,5.88
2023-01-08T16:06:28.472Z,5.97
2023-01-08T16:09:31.224Z,6.03
2023-01-08T16:12:34.116Z,6.07
2023-01-08T16:15:39.052Z,6.00
2023-01-08T16:18:42.445Z,5.78
2023-01-08T16:21:47.950Z,5.25
2023-01-08T16:24:52.008Z,5.88
2023-01-08T16:27:55.112Z,5.60
2023-01-08T16:30:57.992Z,5.53
2023-01-08T16:34:05.395Z,5.90
2023-01-08T16:37:09.582Z,6.28
2023-01-08T16:40:13.633Z,5.75
2023-01-08T16:43:16.965Z,5.68
2023-01-08T16:46:20.430Z,5.77
2023-01-08T16:49:23.491Z,5.20
2023-01-08T16:52:26.621Z,5.47
2023-01-08T16:55:29.737Z,5.65
2023-01-08T16:58:35.396Z,5.57
2023-01-08T17:01:38.545Z,5.70
2023-01-08T17:04:41.713Z,5.97
2023-01-08T17:07:44.648Z,5.38
2023-01-08T17:10:47.919Z,5.35
2023-01-08T17:13:50.899Z,5.60
2023-01-08T17:16:54.200Z,5.63
2023-01-08T17:19:57.215Z,5.65
2023-01-08T17:23:01.929Z,5.43
2023-01-08T17:26:10.855Z,5.60
2023-01-08T17:29:14.099Z,5.15
2023-01-08T17:32:17.633Z,5.67
2023-01-08T17:35:21.882Z,5.80
2023-01-08T17:38:25.726Z,5.53
2023-01-08T17:41:48.460Z,5.38
2023-01-08T17:44:52.913Z,5.43
2023-01-08T17:47:56.272Z,5.57
2023-01-08T17:51:01.058Z,5.65
2023-01-08T17:54:05.418Z,5.68
2023-01-08T17:57:09.876Z,5.68
2023-01-08T18:00:13.945Z,5.72
2023-01-08T18:03:18.685Z,5.67
2023-01-08T18:06:22.881Z,5.30
2023-01-08T18:09:27.098Z,5.10
2023-01-08T18:12:31.332Z,5.22
2023-01-08T18:15:35.423Z,5.50
2023-01-08T18:18:39.997Z,5.77
2023-01-08T18:21:50.487Z,5.15
2023-01-08T18:24:53.437Z,5.60
2023-01-08T18:27:59.225Z,5.47
2023-01-08T18:31:06.740Z,5.82
2023-01-08T18:34:09.983Z,5.67
2023-01-08T18:37:13.235Z,5.20
2023-01-08T18:40:17.209Z,5.78
2023-01-08T18:43:21.232Z,5.60
2023-01-08T18:46:25.393Z,5.82
2023-01-08T18:49:28.715Z,5.47
2023-01-08T18:52:32.536Z,5.28
2023-01-08T18:55:37.618Z,5.00
2023-01-08T18:58:41.200Z,5.40
2023-01-08T19:01:44.987Z,5.70
2023-01-08T19:04:50.020Z,5.57
2023-01-08T19:07:52.987Z,5.20
2023-01-08T19:10:56.454Z,4.93
2023-01-08T19:14:00.098Z,5.20
2023-01-08T19:17:04.530Z,5.50
2023-01-08T19:20:08.850Z,4.90
2023-01-08T19:23:14.123Z,5.10
2023-01-08T19:26:17.850Z,5.30
2023-01-08T19:29:21.927Z,5.15
2023-01-08T19:32:25.470Z,4.88
2023-01-08T19:35:29.026Z,5.67
2023-01-08T19:38:33.169Z,5.15
2023-01-08T19:41:55.136Z,5.10
2023-01-08T19:44:58.567Z,5.00
2023-01-08T19:48:02.271Z,5.57
2023-01-08T19:51:10.832Z,5.13
2023-01-08T19:54:14.414Z,5.15
2023-01-08T19:57:19.075Z,4.80
2023-01-08T20:00:23.825Z,5.00
2023-01-08T20:03:33.853Z,4.82
2023-01-08T20:06:37.393Z,5.03
2023-01-08T20:09:42.530Z,5.20
2023-01-08T20:12:47.463Z,5.43
2023-01-08T20:15:58.200Z,4.78
2023-01-08T20:19:04.847Z,4.93
2023-01-08T20:22:09.697Z,4.73
2023-01-08T20:25:13.416Z,4.90
2023-01-08T20:28:17.028Z,4.65
2023-01-08T20:31:22.948Z,4.60
2023-01-08T20:34:26.851Z,5.18
2023-01-08T20:37:30.334Z,5.30
2023-01-08T20:40:37.922Z,4.68
2023-01-08T20:43:44.505Z,5.30
2023-01-08T20:46:48.154Z,4.47
2023-01-08T20:49:51.332Z,4.97
2023-01-08T20:52:54.337Z,4.87
2023-01-08T20:56:09.960Z,4.47
2023-01-08T20:59:12.722Z,4.65
2023-01-08T21:02:16.295Z,5.43
2023-01-08T21:05:19.798Z,4.68
2023-01-08T21:08:23.362Z,4.77
2023-01-08T21:11:27.531Z,5.18
2023-01-08T21:14:30.376Z,4.70
2023-01-08T21:17:33.271Z,5.28
2023-01-08T21:20:37.248Z,4.93
2023-01-08T21:23:40.557Z,4.30
2023-01-08T21:26:45.479Z,5.13
2023-01-08T21:29:48.188Z,4.78
2023-01-08T21:32:50.814Z,5.00
2023-01-08T21:35:53.495Z,4.72
2023-01-08T21:38:57.352Z,4.80
2023-01-08T21:42:18.757Z,4.75
2023-01-08T21:45:28.145Z,4.72
2023-01-08T21:48:30.987Z,4.93
2023-01-08T21:51:51.987Z,5.00
2023-01-08T21:54:54.749Z,4.50
2023-01-08T21:57:57.554Z,4.60
2023-01-08T22:01:00.158Z,4.47
2023-01-08T22:04:02.951Z,4.43
2023-01-08T22:07:05.653Z,4.70
2023-01-08T22:10:09.627Z,4.30
2023-01-08T22:13:12.584Z,4.80
2023-01-08T22:16:15.425Z,4.68
2023-01-08T22:19:18.052Z,4.43
2023-01-08T22:22:21.652Z,4.47
2023-01-08T22:25:24.229Z,4.77
2023-01-08T22:28:26.841Z,4.35
2023-01-08T22:31:29.547Z,4.78
2023-01-08T22:34:33.541Z,4.60
2023-01-08T22:37:36.901Z,4.32
2023-01-08T22:40:39.777Z,4.67
2023-01-08T22:43:42.641Z,4.25
2023-01-08T22:46:45.435Z,4.68
2023-01-08T22:49:48.667Z,4.60
2023-01-08T22:52:51.514Z,4.22
2023-01-08T22:55:54.093Z,4.37
2023-01-08T22:58:58.108Z,4.88
2023-01-08T23:02:00.841Z,4.47
2023-01-08T23:05:04.310Z,4.05
2023-01-08T23:08:07.724Z,4.70
2023-01-08T23:11:13.163Z,4.00
2023-01-08T23:14:18.827Z,4.30
2023-01-08T23:17:21.462Z,4.65
2023-01-08T23:20:25.178Z,4.13
2023-01-08T23:23:27.890Z,4.55
2023-01-08T23:26:30.637Z,4.37
2023-01-08T23:29:33.218Z,4.40
2023-01-08T23:32:36.215Z,4.75
2023-01-08T23:35:38.826Z,4.57
2023-01-08T23:38:41.467Z,4.18
2023-01-08T23:41:44.083Z,4.27
2023-01-08T23:44:49.471Z,4.30
2023-01-08T23:47:52.076Z,4.50
2023-01-08T23:50:54.669Z,4.55
2023-01-08T23:53:57.287Z,3.95
2023-01-08T23:56:59.888Z,4.27
